createdAt,value
2023-01-28T00:01:46.517Z,19.67
2023-01-28T00:04:48.758Z,20.63
2023-01-28T00:07:51.347Z,21.23
2023-01-28T00:10:52.817Z,22.92
2023-01-28T00:13:55.083Z,18.98
2023-01-28T00:16:56.609Z,20.88
2023-01-28T00:19:58.772Z,19.60
2023-01-28T00:23:00.317Z,19.63
2023-01-28T00:26:04.274Z,20.13
2023-01-28T00:29:06.595Z,19.75
2023-01-28T00:32:08.259Z,20.20
2023-01-28T00:35:09.926Z,20.77
2023-01-28T00:38:11.545Z,18.23
2023-01-28T00:41:16.351Z,19.42
2023-01-28T00:44:18.450Z,20.55
2023-01-28T00:47:19.976Z,21.50
2023-01-28T00:50:21.723Z,17.20
2023-01-28T00:53:23.203Z,21.60
2023-01-28T00:56:25.232Z,17.35
2023-01-28T00:59:46.671Z,21.25
2023-01-28T01:02:48.178Z,21.02
2023-01-28T01:05:49.713Z,17.25
2023-01-28T01:08:51.662Z,18.17
2023-01-28T01:11:53.178Z,16.05
2023-01-28T01:14:54.809Z,18.42
2023-01-28T01:17:57.120Z,17.75
2023-01-28T01:21:01.696Z,15.48
2023-01-28T01:24:03.400Z,19.13
2023-01-28T01:27:06.052Z,18.42
2023-01-28T01:30:09.357Z,19.70
2023-01-28T01:33:10.864Z,20.30
2023-01-28T01:36:14.301Z,19.73
2023-01-28T01:39:16.080Z,18.93
2023-01-28T01:42:17.629Z,18.05
2023-01-28T01:45:19.295Z,20.23
2023-01-28T01:48:35.117Z,22.63
2023-01-28T01:51:37.351Z,21.23
2023-01-28T01:54:43.093Z,21.77
2023-01-28T01:57:47.365Z,18.35
2023-01-28T02:00:48.964Z,20.07
2023-01-28T02:03:50.559Z,18.60
2023-01-28T02:06:52.771Z,17.65
2023-01-28T02:09:54.845Z,17.20
2023-01-28T02:12:59.122Z,16.83
2023-01-28T02:16:03.190Z,16.33
2023-01-28T02:19:06.282Z,17.98
2023-01-28T02:22:29.290Z,15.85
2023-01-28T02:25:37.082Z,14.68
2023-01-28T02:28:51.685Z,17.20
2023-01-28T02:32:23.294Z,15.85
2023-01-28T02:35:29.084Z,14.80
2023-01-28T02:38:39.664Z,13.98
2023-01-28T02:41:58.158Z,15.75
2023-01-28T02:44:59.747Z,15.85
2023-01-28T02:48:01.660Z,14.93
2023-01-28T02:51:18.299Z,15.05
2023-01-28T02:54:38.588Z,15.02
2023-01-28T02:57:49.621Z,15.88
2023-01-28T03:01:01.835Z,17.13
2023-01-28T03:04:29.148Z,15.32
2023-01-28T03:07:35.270Z,17.23
2023-01-28T03:10:37.785Z,16.58
2023-01-28T03:13:59.071Z,17.67
2023-01-28T03:17:21.216Z,15.85
2023-01-28T03:20:45.443Z,19.25
2023-01-28T03:24:36.743Z,16.42
2023-01-28T03:28:07.224Z,17.23
2023-01-28T03:31:37.055Z,21.25
2023-01-28T03:34:58.168Z,17.50
2023-01-28T03:38:17.959Z,16.55
2023-01-28T03:41:22.420Z,17.08
2023-01-28T03:44:43.908Z,17.70
2023-01-28T03:47:45.513Z,18.17
2023-01-28T03:50:48.132Z,16.55
2023-01-28T03:53:49.668Z,16.38
2023-01-28T03:56:51.202Z,17.85
2023-01-28T03:59:53.561Z,16.15
2023-01-28T04:02:56.343Z,16.48
2023-01-28T04:06:05.638Z,16.17
2023-01-28T04:09:27.603Z,16.45
2023-01-28T04:12:54.229Z,16.17
2023-01-28T04:15:55.968Z,16.58
2023-01-28T04:18:58.787Z,15.32
2023-01-28T04:22:00.618Z,15.15
2023-01-28T04:25:02.477Z,17.02
2023-01-28T04:28:04.376Z,14.02
2023-01-28T04:31:06.535Z,15.70
2023-01-28T04:34:20.430Z,18.00
2023-01-28T04:37:44.162Z,14.43
2023-01-28T04:41:02.728Z,14.88
2023-01-28T04:44:07.791Z,16.70
2023-01-28T04:47:33.237Z,14.40
2023-01-28T04:50:50.686Z,16.48
2023-01-28T04:54:12.479Z,16.45
2023-01-28T04:57:14.057Z,17.65
2023-01-28T05:00:16.233Z,15.07
2023-01-28T05:03:18.152Z,15.88
2023-01-28T05:06:20.193Z,16.38
2023-01-28T05:09:22.264Z,15.18
2023-01-28T05:12:25.856Z,14.90
2023-01-28T05:15:29.202Z,13.90
2023-01-28T05:18:31.881Z,14.25
2023-01-28T05:21:41.469Z,18.20
2023-01-28T05:24:52.554Z,15.50
2023-01-28T05:27:54.394Z,14.13
2023-01-28T05:30:55.937Z,17.30
2023-01-28T05:33:57.579Z,16.05
2023-01-28T05:36:59.081Z,17.17
2023-01-28T05:40:06.731Z,14.60
2023-01-28T05:43:08.191Z,14.73
2023-01-28T05:46:16.087Z,12.82
2023-01-28T05:49:36.145Z,13.93
2023-01-28T05:53:06.765Z,13.30
2023-01-28T05:56:09.371Z,16.35
2023-01-28T05:59:12.408Z,13.02
2023-01-28T06:02:16.483Z,15.23
2023-01-28T06:05:18.827Z,15.82
2023-01-28T06:08:20.423Z,15.88
2023-01-28T06:11:22.507Z,16.27
2023-01-28T06:14:27.018Z,15.32
2023-01-28T06:18:00.833Z,11.48
2023-01-28T06:21:05.279Z,8.63
2023-01-28T06:24:06.979Z,8.95
2023-01-28T06:27:08.701Z,10.02
2023-01-28T06:30:11.176Z,9.55
2023-01-28T06:33:12.732Z,9.50
2023-01-28T06:36:14.208Z,13.07
2023-01-28T06:39:15.769Z,12.25
2023-01-28T06:42:17.273Z,11.93
2023-01-28T06:45:18.848Z,13.13
2023-01-28T06:48:21.123Z,16.17
2023-01-28T06:51:22.599Z,16.75
2023-01-28T06:54:24.167Z,8.25
2023-01-28T06:57:25.619Z,27.15
2023-01-28T07:00:27.162Z,25.70
2023-01-28T07:03:28.719Z,16.42
2023-01-28T07:06:30.251Z,9.20
2023-01-28T07:09:31.759Z,8.95
2023-01-28T07:12:33.271Z,7.20
2023-01-28T07:15:34.859Z,6.57
2023-01-28T07:18:36.416Z,8.27
2023-01-28T07:21:38.021Z,6.13
2023-01-28T07:24:39.622Z,9.32
2023-01-28T07:27:47.425Z,10.02
2023-01-28T07:30:53.727Z,9.48
2023-01-28T07:33:55.443Z,9.23
2023-01-28T07:36:57.568Z,17.35
2023-01-28T07:39:59.169Z,10.00
2023-01-28T07:43:00.934Z,12.30
2023-01-28T07:46:10.287Z,9.75
2023-01-28T07:49:11.938Z,10.07
2023-01-28T07:52:13.581Z,5.40
2023-01-28T07:55:15.482Z,7.47
2023-01-28T07:58:17.144Z,9.02
2023-01-28T08:01:19.607Z,6.00
2023-01-28T08:04:21.164Z,10.35
2023-01-28T08:07:48.794Z,6.28
2023-01-28T08:10:50.653Z,6.95
2023-01-28T08:13:52.153Z,7.05
2023-01-28T08:16:53.824Z,7.28
2023-01-28T08:19:55.446Z,7.93
2023-01-28T08:23:06.051Z,8.13
2023-01-28T08:26:07.667Z,12.52
2023-01-28T08:29:09.461Z,11.60
2023-01-28T08:32:11.788Z,9.02
2023-01-28T08:35:13.309Z,9.30
2023-01-28T08:38:18.045Z,7.38
2023-01-28T08:41:29.374Z,7.00
2023-01-28T08:44:30.877Z,12.73
2023-01-28T08:47:32.758Z,7.63
2023-01-28T08:50:39.013Z,7.38
2023-01-28T08:53:40.497Z,5.97
2023-01-28T08:56:44.953Z,6.05
2023-01-28T08:59:46.529Z,6.35
2023-01-28T09:02:51.246Z,8.43
2023-01-28T09:05:52.816Z,7.82
2023-01-28T09:09:00.153Z,9.52
2023-01-28T09:12:01.675Z,11.40
2023-01-28T09:15:04.080Z,10.75
2023-01-28T09:18:05.737Z,10.85
2023-01-28T09:21:08.026Z,10.60
2023-01-28T09:24:12.321Z,6.55
2023-01-28T09:27:14.049Z,9.05
2023-01-28T09:30:16.071Z,7.57
2023-01-28T09:33:17.956Z,6.00
2023-01-28T09:36:19.567Z,7.13
2023-01-28T09:39:21.191Z,5.85
2023-01-28T09:42:44.495Z,5.40
2023-01-28T09:45:49.063Z,6.10
2023-01-28T09:48:53.473Z,6.78
2023-01-28T09:51:56.183Z,8.70
2023-01-28T09:55:04.885Z,15.02
2023-01-28T09:58:12.111Z,9.95
2023-01-28T10:01:38.907Z,7.13
2023-01-28T10:05:13.990Z,7.82
2023-01-28T10:08:44.984Z,7.38
2023-01-28T10:11:49.220Z,10.40
2023-01-28T10:18:24.192Z,7.43
2023-01-28T10:21:33.472Z,6.82
2023-01-28T10:24:39.606Z,8.07
2023-01-28T10:27:42.116Z,10.18
2023-01-28T10:30:45.179Z,8.65
2023-01-28T10:33:46.754Z,8.55
2023-01-28T10:36:49.976Z,7.97
2023-01-28T10:39:56.377Z,8.37
2023-01-28T10:42:57.853Z,9.05
2023-01-28T10:46:16.445Z,11.15
2023-01-28T10:49:30.125Z,8.70
2023-01-28T10:52:31.931Z,7.13
2023-01-28T10:55:52.516Z,7.70
2023-01-28T10:59:04.059Z,10.75
2023-01-28T11:02:22.946Z,11.18
2023-01-28T11:05:27.382Z,9.38
2023-01-28T11:08:31.269Z,25.42
2023-01-28T11:11:32.831Z,10.35
2023-01-28T11:14:34.349Z,8.27
2023-01-28T11:17:38.695Z,8.82
2023-01-28T11:20:51.777Z,8.55
2023-01-28T11:24:04.846Z,7.50
2023-01-28T11:27:16.483Z,7.38
2023-01-28T11:30:26.963Z,18.33
2023-01-28T11:33:33.794Z,25.92
2023-01-28T11:36:35.372Z,6.68
2023-01-28T11:39:36.830Z,6.30
2023-01-28T11:42:38.510Z,13.27
2023-01-28T11:45:47.717Z,8.07
2023-01-28T11:49:30.151Z,7.05
2023-01-28T11:53:05.600Z,8.52
2023-01-28T11:57:05.937Z,6.60
2023-01-28T12:00:27.665Z,9.05
2023-01-28T12:03:47.235Z,7.35
2023-01-28T12:07:10.321Z,7.68
2023-01-28T12:10:36.948Z,7.72
2023-01-28T12:14:07.074Z,13.73
2023-01-28T12:17:16.177Z,7.18
2023-01-28T12:20:50.237Z,9.80
2023-01-28T12:24:19.481Z,7.20
2023-01-28T12:27:58.625Z,6.78
2023-01-28T12:31:30.215Z,10.13
2023-01-28T12:34:44.282Z,8.15
2023-01-28T12:38:09.255Z,9.18
2023-01-28T12:41:18.806Z,8.60
2023-01-28T12:44:31.800Z,7.78
2023-01-28T12:47:40.257Z,19.33
2023-01-28T12:50:48.053Z,14.90
2023-01-28T12:54:13.142Z,8.25
2023-01-28T12:57:21.435Z,9.73
2023-01-28T13:00:30.253Z,10.82
2023-01-28T13:03:41.863Z,13.77
2023-01-28T13:06:53.062Z,11.93
2023-01-28T13:10:22.609Z,8.55
2023-01-28T13:13:34.537Z,7.20
2023-01-28T13:16:38.965Z,8.50
2023-01-28T13:19:42.585Z,9.48
2023-01-28T13:22:45.866Z,9.07
2023-01-28T13:25:53.370Z,11.63
2023-01-28T13:29:09.115Z,8.90
2023-01-28T13:32:33.328Z,10.13
2023-01-28T13:35:40.445Z,9.23
2023-01-28T13:38:42.260Z,8.80
2023-01-28T13:41:46.557Z,13.18
2023-01-28T13:44:48.279Z,13.45
2023-01-28T13:47:59.865Z,11.07
2023-01-28T13:51:03.078Z,10.90
2023-01-28T13:54:08.501Z,11.07
2023-01-28T13:57:34.507Z,11.02
2023-01-28T14:00:45.658Z,11.27
2023-01-28T14:04:06.290Z,10.73
2023-01-28T14:07:37.183Z,10.13
2023-01-28T14:11:06.285Z,9.52
2023-01-28T14:14:45.561Z,10.35
2023-01-28T14:17:50.397Z,8.75
2023-01-28T14:20:54.349Z,8.75
2023-01-28T14:23:58.602Z,9.43
2023-01-28T14:27:22.641Z,11.55
2023-01-28T14:30:36.096Z,11.52
2023-01-28T14:33:38.502Z,8.68
2023-01-28T14:36:44.283Z,10.25
2023-01-28T14:39:52.834Z,12.57
2023-01-28T14:42:56.379Z,10.35
2023-01-28T14:46:24.171Z,9.90
2023-01-28T14:49:51.507Z,8.43
2023-01-28T14:53:11.598Z,10.50
2023-01-28T14:56:24.695Z,10.35
2023-01-28T14:59:30.379Z,10.60
2023-01-28T15:02:32.142Z,10.48
2023-01-28T15:05:33.980Z,13.48
2023-01-28T15:08:35.992Z,10.65
2023-01-28T15:11:41.352Z,10.20
2023-01-28T15:14:44.376Z,10.30
2023-01-28T15:17:47.657Z,11.63
2023-01-28T15:20:52.568Z,9.90
2023-01-28T15:23:58.134Z,9.50
2023-01-28T15:27:00.053Z,11.30
2023-01-28T15:30:02.483Z,8.75
2023-01-28T15:33:14.808Z,10.00
2023-01-28T15:36:16.461Z,10.18
2023-01-28T15:39:21.862Z,8.80
2023-01-28T15:42:29.376Z,9.95
2023-01-28T15:45:32.766Z,9.95
2023-01-28T15:48:35.399Z,10.05
2023-01-28T15:51:37.046Z,9.32
2023-01-28T15:54:45.731Z,9.45
2023-01-28T15:57:47.212Z,9.88
2023-01-28T16:00:49.307Z,9.85
2023-01-28T16:04:02.782Z,9.68
2023-01-28T16:07:05.353Z,9.23
2023-01-28T16:10:07.291Z,8.90
2023-01-28T16:13:21.490Z,9.85
2023-01-28T16:16:35.703Z,8.73
2023-01-28T16:19:38.653Z,10.65
2023-01-28T16:22:43.455Z,7.65
2023-01-28T16:25:44.990Z,9.68
2023-01-28T16:28:46.951Z,8.35
2023-01-28T16:31:48.552Z,9.80
2023-01-28T16:34:50.054Z,13.90
2023-01-28T16:37:51.796Z,11.32
2023-01-28T16:40:53.384Z,11.13
2023-01-28T16:43:54.933Z,12.38
2023-01-28T16:46:56.555Z,10.57
2023-01-28T16:49:58.250Z,15.48
2023-01-28T16:53:00.596Z,15.40
2023-01-28T16:56:02.523Z,20.90
2023-01-28T16:59:04.102Z,12.50
2023-01-28T17:02:05.789Z,15.27
2023-01-28T17:05:07.574Z,12.07
2023-01-28T17:08:09.187Z,10.68
2023-01-28T17:11:10.725Z,13.88
2023-01-28T17:14:12.278Z,10.48
2023-01-28T17:17:13.769Z,13.00
2023-01-28T17:20:15.338Z,14.95
2023-01-28T17:23:19.351Z,15.93
2023-01-28T17:26:20.931Z,17.35
2023-01-28T17:29:22.542Z,16.95
2023-01-28T17:32:24.054Z,13.75
2023-01-28T17:35:25.635Z,13.10
2023-01-28T17:38:27.285Z,13.68
2023-01-28T17:41:28.797Z,13.27
2023-01-28T17:44:30.390Z,13.68
2023-01-28T17:47:31.962Z,11.63
2023-01-28T17:50:33.628Z,12.05
2023-01-28T17:53:35.220Z,14.07
2023-01-28T17:56:38.251Z,11.10
2023-01-28T17:59:39.995Z,12.98
2023-01-28T18:02:41.450Z,14.00
2023-01-28T18:05:43.362Z,13.45
2023-01-28T18:08:45.674Z,14.18
2023-01-28T18:11:47.516Z,21.73
2023-01-28T18:14:49.014Z,14.30
2023-01-28T18:17:53.776Z,14.02
2023-01-28T18:21:00.232Z,13.40
2023-01-28T18:24:02.875Z,13.77
2023-01-28T18:27:04.414Z,14.98
2023-01-28T18:30:06.369Z,13.57
2023-01-28T18:33:08.762Z,12.40
2023-01-28T18:36:10.462Z,13.98
2023-01-28T18:39:13.619Z,12.93
2023-01-28T18:42:15.248Z,15.20
2023-01-28T18:45:17.454Z,12.48
2023-01-28T18:48:19.647Z,13.73
2023-01-28T18:51:29.980Z,26.80
2023-01-28T18:54:32.293Z,16.77
2023-01-28T18:57:33.893Z,12.82
2023-01-28T19:00:35.371Z,16.48
2023-01-28T19:03:38.165Z,13.88
2023-01-28T19:06:39.891Z,13.77
2023-01-28T19:09:51.401Z,14.07
2023-01-28T19:12:56.276Z,13.88
2023-01-28T19:16:01.951Z,12.20
2023-01-28T19:19:04.369Z,10.95
2023-01-28T19:22:06.897Z,12.38
2023-01-28T19:25:09.038Z,13.20
2023-01-28T19:28:10.692Z,15.45
2023-01-28T19:31:12.300Z,12.52
2023-01-28T19:34:15.908Z,13.88
2023-01-28T19:37:20.504Z,12.55
2023-01-28T19:40:22.283Z,15.95
2023-01-28T19:43:23.838Z,14.40
2023-01-28T19:46:26.171Z,16.17
2023-01-28T19:49:29.301Z,15.35
2023-01-28T19:52:31.606Z,13.98
2023-01-28T19:55:33.085Z,12.35
2023-01-28T19:58:35.778Z,13.38
2023-01-28T20:01:37.373Z,12.55
2023-01-28T20:04:47.483Z,14.20
2023-01-28T20:07:56.517Z,11.93
2023-01-28T20:11:12.402Z,13.20
2023-01-28T20:14:14.982Z,13.48
2023-01-28T20:17:16.711Z,13.82
2023-01-28T20:20:18.327Z,12.60
2023-01-28T20:23:19.893Z,14.73
2023-01-28T20:26:24.880Z,11.77
2023-01-28T20:29:27.039Z,12.40
2023-01-28T20:32:29.180Z,11.65
2023-01-28T20:35:30.720Z,12.65
2023-01-28T20:38:37.138Z,10.90
2023-01-28T20:41:38.705Z,11.63
2023-01-28T20:44:40.759Z,11.25
2023-01-28T20:47:42.287Z,12.88
2023-01-28T20:50:43.849Z,11.40
2023-01-28T20:53:46.249Z,11.27
2023-01-28T20:56:51.339Z,9.77
2023-01-28T20:59:52.930Z,13.02
2023-01-28T21:02:54.396Z,11.90
2023-01-28T21:05:56.156Z,12.63
2023-01-28T21:08:58.279Z,11.95
2023-01-28T21:12:00.018Z,13.20
2023-01-28T21:15:01.785Z,11.60
2023-01-28T21:18:04.042Z,14.40
2023-01-28T21:21:18.358Z,13.20
2023-01-28T21:24:19.866Z,14.63
2023-01-28T21:27:21.437Z,14.23
2023-01-28T21:30:26.546Z,14.07
2023-01-28T21:33:30.786Z,12.80
2023-01-28T21:36:34.288Z,13.65
2023-01-28T21:39:35.821Z,14.93
2023-01-28T21:42:37.353Z,12.40
2023-01-28T21:45:39.032Z,14.77
2023-01-28T21:48:40.562Z,13.45
2023-01-28T21:51:50.628Z,10.93
2023-01-28T21:54:52.566Z,11.60
2023-01-28T21:58:14.025Z,11.20
2023-01-28T22:01:15.766Z,11.90
2023-01-28T22:04:17.384Z,10.63
2023-01-28T22:07:20.090Z,10.52
2023-01-28T22:10:22.031Z,10.52
2023-01-28T22:13:23.607Z,9.65
2023-01-28T22:16:25.278Z,11.13
2023-01-28T22:19:26.832Z,11.75
2023-01-28T22:22:28.379Z,11.68
2023-01-28T22:25:29.992Z,12.07
2023-01-28T22:28:31.551Z,10.93
2023-01-28T22:31:33.417Z,11.95
2023-01-28T22:38:16.851Z,11.45
2023-01-28T22:41:22.676Z,11.32
2023-01-28T22:44:24.345Z,11.57
2023-01-28T22:47:25.763Z,11.77
2023-01-28T22:50:27.345Z,11.82
2023-01-28T22:53:29.211Z,11.85
2023-01-28T22:56:31.211Z,11.35
2023-01-28T22:59:32.738Z,9.57
2023-01-28T23:02:34.263Z,12.20
2023-01-28T23:05:36.568Z,11.30
2023-01-28T23:08:38.122Z,12.77
2023-01-28T23:11:39.654Z,13.88
2023-01-28T23:14:59.628Z,12.55
2023-01-28T23:18:20.016Z,12.10
2023-01-28T23:21:43.004Z,11.07
2023-01-28T23:24:44.570Z,11.43
2023-01-28T23:27:46.309Z,13.48
2023-01-28T23:30:47.929Z,12.98
2023-01-28T23:33:49.526Z,11.48
2023-01-28T23:36:51.437Z,12.40
2023-01-28T23:39:52.937Z,12.57
2023-01-28T23:42:55.366Z,12.50
2023-01-28T23:45:56.846Z,12.88
2023-01-28T23:48:58.337Z,10.40
2023-01-28T23:52:00.953Z,12.13
2023-01-28T23:55:02.855Z,11.65
2023-01-28T23:58:04.976Z,9.55
